Aérodrome :
LOGIN :

S'inscrire | Disclaimer

   EN    FR    IT 

 










Légende :    VFR   VFR Marginal   IFR   IFR Intensif   IFR Très Intensif
Visi : 
Plafond : 
>= 8 km
>= 3000ft
5 à 8 km
1000 à 3000 ft
1500m à 5 km
500 à 1000 ft
800 à 1500m
200 à 500 ft
< 800m
< 200 ft
Symboles :   Orages  Brouillard  Fortes neiges  Fortes précipitations  Vent > 20 kt
SIGMETs :   Divers  Orages  Givrage  Turbulence  Onde Orograph.  Cendres Volcan.






- Altitude de l'aérodrome : 433 ft
- Code IATA : CCF


LFMK - Carcassonne

DERNIER METAR :
  • 020730Z AUTO 08008KT 9999 BKN037 OVC043 09/06 Q1014 NOSIG

METARs EXPIRÉS :
  • 020700Z AUTO 09008KT 9999 OVC037 09/06 Q1014 NOSIG
  • 020630Z AUTO 09005KT 050V150 9999 FEW027 OVC035 08/06 Q1014 NOSIG
  • 020600Z AUTO 10004KT 060V150 9999 FEW028 BKN048 BKN070 08/06 Q1014 NOSIG
  • 020530Z AUTO 09004KT 9999 OVC047 08/06 Q1013 NOSIG
  • 020500Z AUTO 09006KT 9999 FEW048 OVC084 08/06 Q1013 TEMPO BKN014
  • 020430Z AUTO 09007KT 9999 FEW013 SCT042 OVC084 08/06 Q1013 TEMPO BKN014

TAF AMD TAF LFMK
Valide du 02 à 04h jusqu'au 03 à 03h UTC


020413Z 0204/0303 09010KT 9999 FEW015 BKN025
PROB30
TEMPO 0204/0206 BKN014
BECMG 0215/0218 27010KT
BECMG 0221/0224 27015G25KT



MET'MAP, la Météo Aéronautique d'un coup d'oeil ! - Copyright ORBIFLY Décembre 2007 - Disclaimer

ORBIFLY MET'MAP TEAM :

Programmation & Développement : Alexandra Zaïnal
Sur une idée originale de : Baudouin d'Aumeries
Assistance à la programmation : Marc-Olivier Méhu
Soutien technique & logistique : Manuel Goepfert

Contact : metmap@orbifly.com




SOURCES & CREDITS :

   NOAA